createdAt,value
2023-12-31T00:00:45.877Z,91
2023-12-31T00:01:31.775Z,91
2023-12-31T00:02:17.746Z,91
2023-12-31T00:03:04.145Z,91
2023-12-31T00:03:49.775Z,91
2023-12-31T00:04:35.751Z,91
2023-12-31T00:05:21.824Z,91
2023-12-31T00:06:07.875Z,91
2023-12-31T00:06:53.720Z,91
2023-12-31T00:07:39.746Z,91
2023-12-31T00:08:25.746Z,91
2023-12-31T00:09:11.779Z,91
2023-12-31T00:09:57.735Z,91
2023-12-31T00:10:43.840Z,91
2023-12-31T00:11:29.768Z,91
2023-12-31T00:12:15.838Z,91
2023-12-31T00:13:01.900Z,91
2023-12-31T00:13:47.791Z,91
2023-12-31T00:14:33.743Z,91
2023-12-31T00:15:19.819Z,91
2023-12-31T00:16:05.748Z,92
2023-12-31T00:16:51.797Z,92
2023-12-31T00:17:37.846Z,92
2023-12-31T00:18:23.844Z,92
2023-12-31T00:19:09.856Z,92
2023-12-31T00:19:55.877Z,92
2023-12-31T00:20:41.862Z,92
2023-12-31T00:21:27.793Z,92
2023-12-31T00:22:13.831Z,92
2023-12-31T00:22:59.888Z,92
2023-12-31T00:23:45.776Z,92
2023-12-31T00:24:31.803Z,92
2023-12-31T00:25:17.829Z,92
2023-12-31T00:26:03.821Z,92
2023-12-31T00:26:49.760Z,92
2023-12-31T00:27:35.823Z,92
2023-12-31T00:28:21.844Z,92
2023-12-31T00:29:07.872Z,92
2023-12-31T00:29:53.798Z,92
2023-12-31T00:30:39.970Z,92
2023-12-31T00:31:25.897Z,92
2023-12-31T00:32:11.863Z,92
2023-12-31T00:32:57.969Z,92
2023-12-31T00:33:43.889Z,92
2023-12-31T00:34:29.893Z,92
2023-12-31T00:35:15.774Z,92
2023-12-31T00:36:02.235Z,92
2023-12-31T00:36:47.999Z,92
2023-12-31T00:37:34.081Z,92
2023-12-31T00:38:19.944Z,92
2023-12-31T00:39:06.123Z,92
2023-12-31T00:39:52.117Z,92
2023-12-31T00:40:38.123Z,92
2023-12-31T00:41:24.075Z,92
2023-12-31T00:42:10.064Z,92
2023-12-31T00:42:56.089Z,92
2023-12-31T00:43:41.934Z,92
2023-12-31T00:44:27.862Z,92
2023-12-31T00:45:14.077Z,92
2023-12-31T00:45:59.884Z,93
2023-12-31T00:46:45.870Z,93
2023-12-31T00:47:31.886Z,93
2023-12-31T00:48:17.998Z,93
2023-12-31T00:49:03.934Z,93
2023-12-31T00:49:49.888Z,93
2023-12-31T00:50:35.838Z,93
2023-12-31T00:51:21.869Z,93
2023-12-31T00:52:07.991Z,93
2023-12-31T00:52:53.823Z,93
2023-12-31T00:53:39.899Z,93
2023-12-31T00:54:25.936Z,93
2023-12-31T00:55:11.923Z,93
2023-12-31T00:55:57.950Z,93
2023-12-31T00:56:43.861Z,93
2023-12-31T00:57:29.835Z,93
2023-12-31T00:58:15.837Z,93
2023-12-31T00:59:01.880Z,93
2023-12-31T00:59:47.922Z,93
2023-12-31T01:00:33.983Z,93
2023-12-31T01:01:20.014Z,93
2023-12-31T01:02:05.985Z,93
2023-12-31T01:02:51.950Z,93
2023-12-31T01:03:37.923Z,93
2023-12-31T01:04:23.874Z,93
2023-12-31T01:05:09.919Z,93
2023-12-31T01:05:56.100Z,93
2023-12-31T01:06:41.916Z,93
2023-12-31T01:07:27.885Z,93
2023-12-31T01:08:13.900Z,93
2023-12-31T01:08:59.888Z,93
2023-12-31T01:09:45.865Z,93
2023-12-31T01:10:32.008Z,93
2023-12-31T01:11:17.878Z,93
2023-12-31T01:12:04.002Z,93
2023-12-31T01:12:49.874Z,93
2023-12-31T01:13:35.924Z,93
2023-12-31T01:14:21.975Z,93
2023-12-31T01:15:08.092Z,93
2023-12-31T01:15:53.919Z,93
2023-12-31T01:16:39.896Z,93
2023-12-31T01:17:25.974Z,93
2023-12-31T01:18:11.947Z,93
2023-12-31T01:18:57.976Z,93
2023-12-31T01:19:43.985Z,93
2023-12-31T01:20:29.995Z,93
2023-12-31T01:21:15.870Z,93
2023-12-31T01:22:02.029Z,93
2023-12-31T01:22:47.959Z,93
2023-12-31T01:23:33.915Z,93
2023-12-31T01:24:19.925Z,93
2023-12-31T01:25:06.108Z,93
2023-12-31T01:25:52.030Z,93
2023-12-31T01:26:37.954Z,93
2023-12-31T01:27:23.952Z,93
2023-12-31T01:28:09.909Z,93
2023-12-31T01:28:55.987Z,93
2023-12-31T01:29:41.960Z,93
2023-12-31T01:30:28.096Z,93
2023-12-31T01:31:13.974Z,92
2023-12-31T01:31:59.929Z,92
2023-12-31T01:32:46.035Z,92
2023-12-31T01:33:32.089Z,92
2023-12-31T01:34:18.008Z,92
2023-12-31T01:35:03.989Z,91
2023-12-31T01:35:49.948Z,91
2023-12-31T01:36:35.962Z,91
2023-12-31T01:37:22.015Z,91
2023-12-31T01:38:08.087Z,91
2023-12-31T01:38:53.919Z,90
2023-12-31T01:39:39.939Z,90
2023-12-31T01:40:25.953Z,90
2023-12-31T01:41:11.996Z,90
2023-12-31T01:41:57.943Z,90
2023-12-31T01:42:44.007Z,90
2023-12-31T01:43:30.033Z,90
2023-12-31T01:44:15.961Z,90
2023-12-31T01:45:02.341Z,90
2023-12-31T01:45:47.978Z,90
2023-12-31T01:46:34.045Z,90
2023-12-31T01:47:19.958Z,90
2023-12-31T01:48:06.170Z,90
2023-12-31T01:48:52.077Z,90
2023-12-31T01:49:38.041Z,90
2023-12-31T01:50:23.968Z,90
2023-12-31T01:51:09.971Z,90
2023-12-31T01:51:55.966Z,90
2023-12-31T01:52:42.063Z,90
2023-12-31T01:53:28.024Z,90
2023-12-31T01:54:14.080Z,90
2023-12-31T01:54:59.988Z,90
2023-12-31T01:55:46.098Z,90
2023-12-31T01:56:32.028Z,90
2023-12-31T01:57:18.005Z,90
2023-12-31T01:58:03.997Z,90
2023-12-31T01:58:49.993Z,90
2023-12-31T01:59:35.988Z,90
2023-12-31T02:00:22.190Z,90
2023-12-31T02:01:08.054Z,90
2023-12-31T02:01:56.812Z,90
2023-12-31T02:02:40.061Z,90
2023-12-31T02:03:26.032Z,90
2023-12-31T02:04:12.171Z,90
2023-12-31T02:04:58.106Z,90
2023-12-31T02:05:44.141Z,90
2023-12-31T02:06:30.021Z,90
2023-12-31T02:07:16.039Z,90
2023-12-31T02:08:02.193Z,90
2023-12-31T02:08:48.023Z,90
2023-12-31T02:09:34.092Z,90
2023-12-31T02:10:20.064Z,91
2023-12-31T02:11:06.044Z,91
2023-12-31T02:11:52.096Z,91
2023-12-31T02:12:38.075Z,91
2023-12-31T02:13:24.049Z,91
2023-12-31T02:14:10.021Z,91
2023-12-31T02:14:56.066Z,91
2023-12-31T02:15:42.215Z,91
2023-12-31T02:16:28.052Z,91
2023-12-31T02:17:14.066Z,91
2023-12-31T02:18:00.105Z,91
2023-12-31T02:18:46.216Z,91
2023-12-31T02:19:32.135Z,91
2023-12-31T02:20:18.077Z,91
2023-12-31T02:21:04.253Z,91
2023-12-31T02:21:50.035Z,91
2023-12-31T02:22:36.200Z,91
2023-12-31T02:23:22.093Z,91
2023-12-31T02:24:08.150Z,91
2023-12-31T02:24:54.066Z,91
2023-12-31T02:25:40.328Z,91
2023-12-31T02:26:26.152Z,91
2023-12-31T02:27:12.116Z,91
2023-12-31T02:27:58.078Z,91
2023-12-31T02:28:44.204Z,91
2023-12-31T02:29:30.105Z,91
2023-12-31T02:30:16.205Z,91
2023-12-31T02:31:02.145Z,91
2023-12-31T02:31:48.215Z,91
2023-12-31T02:32:34.198Z,91
2023-12-31T02:33:20.103Z,91
2023-12-31T02:34:06.138Z,91
2023-12-31T02:34:52.170Z,91
2023-12-31T02:35:38.147Z,91
2023-12-31T02:36:24.094Z,91
2023-12-31T02:37:10.114Z,92
2023-12-31T02:37:56.081Z,92
2023-12-31T02:38:42.155Z,92
2023-12-31T02:39:28.093Z,92
2023-12-31T02:40:14.304Z,92
2023-12-31T02:41:00.180Z,92
2023-12-31T02:41:46.112Z,92
2023-12-31T02:42:32.149Z,92
2023-12-31T02:43:18.132Z,92
2023-12-31T02:44:04.133Z,92
2023-12-31T02:44:50.100Z,92
2023-12-31T02:45:36.228Z,92
2023-12-31T02:46:22.177Z,92
2023-12-31T02:47:08.167Z,92
2023-12-31T02:47:54.295Z,92
2023-12-31T02:48:40.165Z,92
2023-12-31T02:49:26.203Z,92
2023-12-31T02:50:12.216Z,92
2023-12-31T02:50:58.178Z,92
2023-12-31T02:51:44.164Z,92
2023-12-31T02:52:30.256Z,92
2023-12-31T02:53:16.199Z,92
2023-12-31T02:54:02.173Z,92
2023-12-31T02:54:48.138Z,92
2023-12-31T02:55:34.270Z,92
2023-12-31T02:56:20.127Z,92
2023-12-31T02:57:06.138Z,92
2023-12-31T02:57:52.206Z,92
2023-12-31T02:58:38.259Z,92
2023-12-31T02:59:24.146Z,92
2023-12-31T03:00:10.235Z,92
2023-12-31T03:00:56.172Z,92
2023-12-31T03:01:42.256Z,92
2023-12-31T03:02:28.142Z,92
2023-12-31T03:03:14.252Z,92
2023-12-31T03:04:00.242Z,91
2023-12-31T03:04:46.267Z,91
2023-12-31T03:05:32.255Z,91
2023-12-31T03:06:18.230Z,91
2023-12-31T03:07:04.231Z,91
2023-12-31T03:07:50.289Z,91
2023-12-31T03:08:36.150Z,91
2023-12-31T03:09:22.205Z,91
2023-12-31T03:10:08.226Z,91
2023-12-31T03:10:54.264Z,91
2023-12-31T03:11:40.186Z,91
2023-12-31T03:12:26.182Z,91
2023-12-31T03:13:13.740Z,91
2023-12-31T03:13:58.195Z,91
2023-12-31T03:14:44.229Z,91
2023-12-31T03:15:30.277Z,91
2023-12-31T03:16:16.283Z,91
2023-12-31T03:17:02.265Z,91
2023-12-31T03:17:48.323Z,91
2023-12-31T03:18:34.315Z,91
2023-12-31T03:19:20.213Z,91
2023-12-31T03:20:06.269Z,91
2023-12-31T03:20:52.228Z,91
2023-12-31T03:21:38.311Z,91
2023-12-31T03:22:33.666Z,91
2023-12-31T03:23:10.210Z,91
2023-12-31T03:23:56.247Z,91
2023-12-31T03:24:42.270Z,90
2023-12-31T03:25:28.244Z,90
2023-12-31T03:26:14.241Z,90
2023-12-31T03:27:00.230Z,90
2023-12-31T03:27:46.211Z,90
2023-12-31T03:28:32.303Z,90
2023-12-31T03:29:18.268Z,90
2023-12-31T03:30:04.431Z,90
2023-12-31T03:30:50.331Z,90
2023-12-31T03:31:36.248Z,90
2023-12-31T03:32:22.368Z,90
2023-12-31T03:33:08.743Z,90
2023-12-31T03:33:54.274Z,90
2023-12-31T03:34:40.297Z,90
2023-12-31T03:35:26.297Z,90
2023-12-31T03:36:12.283Z,91
2023-12-31T03:36:58.253Z,91
2023-12-31T03:37:44.339Z,91
2023-12-31T03:38:30.225Z,91
2023-12-31T03:39:16.248Z,91
2023-12-31T03:40:02.356Z,91
2023-12-31T03:40:48.341Z,91
2023-12-31T03:41:34.320Z,91
2023-12-31T03:42:20.257Z,91
2023-12-31T03:43:06.236Z,91
2023-12-31T03:43:52.359Z,91
2023-12-31T03:44:38.350Z,91
2023-12-31T03:45:24.375Z,91
2023-12-31T03:46:10.313Z,91
2023-12-31T03:46:56.324Z,91
2023-12-31T03:47:42.436Z,91
2023-12-31T03:48:28.459Z,91
2023-12-31T03:49:14.312Z,91
2023-12-31T03:50:00.327Z,91
2023-12-31T03:50:46.345Z,91
2023-12-31T03:51:32.323Z,91
2023-12-31T03:52:18.352Z,91
2023-12-31T03:53:04.574Z,91
2023-12-31T03:53:50.278Z,91
2023-12-31T03:54:36.307Z,91
2023-12-31T03:55:22.370Z,91
2023-12-31T03:56:08.366Z,91
2023-12-31T03:56:54.272Z,91
2023-12-31T03:57:40.286Z,91
2023-12-31T03:58:26.292Z,91
2023-12-31T03:59:12.371Z,91
2023-12-31T03:59:58.318Z,91
2023-12-31T04:00:44.527Z,91
2023-12-31T04:01:30.321Z,91
2023-12-31T04:02:16.301Z,91
2023-12-31T04:03:02.742Z,91
2023-12-31T04:03:48.349Z,91
2023-12-31T04:04:34.414Z,91
2023-12-31T04:05:20.440Z,91
2023-12-31T04:06:06.427Z,91
2023-12-31T04:06:52.334Z,91
2023-12-31T04:07:38.446Z,91
2023-12-31T04:08:24.303Z,91
2023-12-31T04:09:10.316Z,90
2023-12-31T04:09:56.333Z,90
2023-12-31T04:10:42.423Z,90
2023-12-31T04:11:28.312Z,90
2023-12-31T04:12:14.380Z,90
2023-12-31T04:13:00.497Z,90
2023-12-31T04:13:46.429Z,90
2023-12-31T04:14:32.423Z,90
2023-12-31T04:15:18.503Z,90
2023-12-31T04:16:04.401Z,90
2023-12-31T04:16:50.430Z,90
2023-12-31T04:17:36.413Z,90
2023-12-31T04:18:22.489Z,90
2023-12-31T04:19:08.404Z,90
2023-12-31T04:19:54.444Z,90
2023-12-31T04:20:40.347Z,90
2023-12-31T04:21:26.419Z,90
2023-12-31T04:22:12.406Z,90
2023-12-31T04:22:58.347Z,90
2023-12-31T04:23:44.419Z,90
2023-12-31T04:24:30.378Z,90
2023-12-31T04:25:16.492Z,90
2023-12-31T04:26:02.428Z,90
2023-12-31T04:26:48.423Z,90
2023-12-31T04:27:34.434Z,90
2023-12-31T04:28:20.505Z,90
2023-12-31T04:29:06.389Z,90
2023-12-31T04:29:52.441Z,90
2023-12-31T04:30:38.634Z,90
2023-12-31T04:31:24.418Z,90
2023-12-31T04:32:10.415Z,90
2023-12-31T04:32:56.426Z,90
2023-12-31T04:33:42.511Z,90
2023-12-31T04:34:28.449Z,90
2023-12-31T04:35:14.543Z,90
2023-12-31T04:36:00.507Z,90
2023-12-31T04:36:46.494Z,90
2023-12-31T04:37:32.460Z,90
2023-12-31T04:38:18.452Z,90
2023-12-31T04:39:04.537Z,90
2023-12-31T04:39:50.410Z,90
2023-12-31T04:40:36.449Z,90
2023-12-31T04:41:22.573Z,90
2023-12-31T04:42:08.465Z,90
2023-12-31T04:42:54.429Z,90
2023-12-31T04:43:40.449Z,90
2023-12-31T04:44:26.442Z,90
2023-12-31T04:45:12.596Z,90
2023-12-31T04:45:58.469Z,90
2023-12-31T04:46:44.530Z,90
2023-12-31T04:47:30.477Z,90
2023-12-31T04:48:16.502Z,90
2023-12-31T04:49:02.519Z,89
2023-12-31T04:49:48.667Z,89
2023-12-31T04:50:34.644Z,89
2023-12-31T04:51:20.495Z,89
2023-12-31T04:52:06.462Z,89
2023-12-31T04:52:52.509Z,89
2023-12-31T04:53:38.577Z,89
2023-12-31T04:54:24.488Z,89
2023-12-31T04:55:10.610Z,89
2023-12-31T04:55:56.583Z,89
2023-12-31T04:56:42.495Z,89
2023-12-31T04:57:28.475Z,89
2023-12-31T04:58:14.532Z,89
2023-12-31T04:59:00.497Z,89
2023-12-31T04:59:46.527Z,89
2023-12-31T05:00:32.654Z,89
2023-12-31T05:01:18.576Z,89
2023-12-31T05:02:05.559Z,89
2023-12-31T05:02:50.492Z,88
2023-12-31T05:03:36.546Z,88
2023-12-31T05:04:22.556Z,88
2023-12-31T05:05:08.634Z,88
2023-12-31T05:05:54.548Z,88
2023-12-31T05:06:40.496Z,88
2023-12-31T05:07:26.570Z,88
2023-12-31T05:08:12.650Z,88
2023-12-31T05:08:58.533Z,87
2023-12-31T05:09:44.538Z,87
2023-12-31T05:10:30.561Z,87
2023-12-31T05:11:16.585Z,87
2023-12-31T05:12:02.603Z,87
2023-12-31T05:12:48.585Z,87
2023-12-31T05:13:34.587Z,87
2023-12-31T05:14:20.539Z,87
2023-12-31T05:15:06.675Z,87
2023-12-31T05:15:52.593Z,86
2023-12-31T05:16:38.628Z,86
2023-12-31T05:17:24.683Z,86
2023-12-31T05:18:10.662Z,86
2023-12-31T05:18:56.705Z,86
2023-12-31T05:19:42.660Z,86
2023-12-31T05:20:28.566Z,86
2023-12-31T05:21:14.594Z,86
2023-12-31T05:22:00.566Z,86
2023-12-31T05:22:46.603Z,85
2023-12-31T05:23:32.572Z,85
2023-12-31T05:24:18.614Z,85
2023-12-31T05:25:04.609Z,85
2023-12-31T05:25:50.664Z,84
2023-12-31T05:26:36.588Z,84
2023-12-31T05:27:22.607Z,84
2023-12-31T05:28:08.636Z,84
2023-12-31T05:28:54.697Z,83
2023-12-31T05:29:40.579Z,83
2023-12-31T05:30:26.818Z,83
2023-12-31T05:31:12.678Z,83
2023-12-31T05:31:58.610Z,82
2023-12-31T05:32:44.656Z,82
2023-12-31T05:33:30.575Z,82
2023-12-31T05:34:16.653Z,82
2023-12-31T05:35:02.775Z,82
2023-12-31T05:35:48.661Z,82
2023-12-31T05:36:34.672Z,82
2023-12-31T05:37:20.727Z,81
2023-12-31T05:38:06.647Z,81
2023-12-31T05:38:52.625Z,81
2023-12-31T05:39:38.622Z,81
2023-12-31T05:40:24.659Z,81
2023-12-31T05:41:10.605Z,81
2023-12-31T05:41:56.713Z,81
2023-12-31T05:42:42.685Z,81
2023-12-31T05:43:28.651Z,81
2023-12-31T05:44:14.672Z,81
2023-12-31T05:45:00.812Z,81
2023-12-31T05:45:46.687Z,81
2023-12-31T05:46:32.679Z,81
2023-12-31T05:47:44.349Z,81
2023-12-31T05:48:04.786Z,81
2023-12-31T05:48:50.902Z,81
2023-12-31T05:49:36.723Z,81
2023-12-31T05:50:22.815Z,81
2023-12-31T05:51:08.652Z,81
2023-12-31T05:51:54.613Z,81
2023-12-31T05:52:40.641Z,81
2023-12-31T05:53:26.638Z,81
2023-12-31T05:54:12.716Z,81
2023-12-31T05:54:58.628Z,81
2023-12-31T05:55:44.747Z,81
2023-12-31T05:56:30.627Z,81
2023-12-31T05:57:16.697Z,81
2023-12-31T05:58:02.684Z,81
2023-12-31T05:58:48.813Z,80
2023-12-31T05:59:34.690Z,80
2023-12-31T06:00:20.866Z,80
2023-12-31T06:01:06.856Z,80
2023-12-31T06:01:52.760Z,80
2023-12-31T06:02:38.685Z,80
2023-12-31T06:03:24.670Z,80
2023-12-31T06:04:10.705Z,80
2023-12-31T06:04:56.669Z,80
2023-12-31T06:05:42.768Z,80
2023-12-31T06:06:28.664Z,80
2023-12-31T06:07:14.748Z,80
2023-12-31T06:08:00.854Z,80
2023-12-31T06:08:46.796Z,80
2023-12-31T06:09:32.711Z,80
2023-12-31T06:10:18.806Z,80
2023-12-31T06:11:04.787Z,80
2023-12-31T06:11:50.675Z,80
2023-12-31T06:12:36.671Z,80
2023-12-31T06:13:22.733Z,81
2023-12-31T06:14:08.714Z,81
2023-12-31T06:14:54.685Z,81
2023-12-31T06:15:40.766Z,81
2023-12-31T06:16:26.710Z,81
2023-12-31T06:17:12.763Z,81
2023-12-31T06:17:58.780Z,81
2023-12-31T06:18:44.803Z,81
2023-12-31T06:19:30.743Z,82
2023-12-31T06:20:16.766Z,82
2023-12-31T06:21:02.772Z,82
2023-12-31T06:21:48.745Z,82
2023-12-31T06:22:34.769Z,82
2023-12-31T06:23:20.701Z,82
2023-12-31T06:24:06.694Z,83
2023-12-31T06:24:52.764Z,83
2023-12-31T06:25:38.765Z,83
2023-12-31T06:26:24.729Z,83
2023-12-31T06:27:10.717Z,83
2023-12-31T06:27:56.801Z,83
2023-12-31T06:28:42.823Z,83
2023-12-31T06:29:28.730Z,83
2023-12-31T06:30:15.042Z,84
2023-12-31T06:31:00.856Z,84
2023-12-31T06:31:46.888Z,84
2023-12-31T06:32:32.890Z,84
2023-12-31T06:33:18.942Z,84
2023-12-31T06:34:04.774Z,85
2023-12-31T06:34:50.795Z,85
2023-12-31T06:35:36.759Z,85
2023-12-31T06:36:22.736Z,85
2023-12-31T06:37:08.767Z,85
2023-12-31T06:37:54.739Z,85
2023-12-31T06:38:40.857Z,85
2023-12-31T06:39:26.785Z,86
2023-12-31T06:40:12.901Z,86
2023-12-31T06:40:58.728Z,86
2023-12-31T06:41:44.793Z,86
2023-12-31T06:42:30.765Z,86
2023-12-31T06:43:16.859Z,86
2023-12-31T06:44:02.795Z,86
2023-12-31T06:44:48.802Z,86
2023-12-31T06:45:37.764Z,86
2023-12-31T06:46:20.861Z,86
2023-12-31T06:47:06.781Z,86
2023-12-31T06:47:52.981Z,87
2023-12-31T06:48:38.825Z,87
2023-12-31T06:49:24.857Z,87
2023-12-31T06:50:10.762Z,87
2023-12-31T06:50:56.809Z,87
2023-12-31T06:51:42.818Z,87
2023-12-31T06:52:28.818Z,87
2023-12-31T06:53:14.812Z,87
2023-12-31T06:54:00.793Z,87
2023-12-31T06:54:46.865Z,87
2023-12-31T06:55:32.871Z,87
2023-12-31T06:56:18.859Z,87
2023-12-31T06:57:07.978Z,87
2023-12-31T06:57:50.831Z,87
2023-12-31T06:58:36.832Z,87
2023-12-31T06:59:22.835Z,87
2023-12-31T07:00:08.934Z,88
2023-12-31T07:00:54.896Z,88
2023-12-31T07:01:40.829Z,88
2023-12-31T07:02:26.882Z,88
2023-12-31T07:03:13.033Z,88
2023-12-31T07:03:58.814Z,88
2023-12-31T07:04:44.875Z,88
2023-12-31T07:05:30.861Z,88
2023-12-31T07:06:16.861Z,88
2023-12-31T07:07:02.862Z,88
2023-12-31T07:07:48.960Z,88
2023-12-31T07:08:34.858Z,88
2023-12-31T07:09:20.866Z,88
2023-12-31T07:10:06.838Z,88
2023-12-31T07:10:52.964Z,88
2023-12-31T07:11:38.829Z,88
2023-12-31T07:12:24.800Z,88
2023-12-31T07:13:10.902Z,88
2023-12-31T07:13:56.991Z,88
2023-12-31T07:14:42.904Z,88
2023-12-31T07:15:28.955Z,88
2023-12-31T07:16:14.891Z,88
2023-12-31T07:17:00.906Z,88
2023-12-31T07:17:46.980Z,88
2023-12-31T07:18:32.976Z,88
2023-12-31T07:19:19.028Z,88
2023-12-31T07:20:04.941Z,88
2023-12-31T07:20:50.880Z,88
2023-12-31T07:21:36.853Z,88
2023-12-31T07:22:22.932Z,88
2023-12-31T07:23:08.899Z,88
2023-12-31T07:23:54.909Z,89
2023-12-31T07:24:40.857Z,89
2023-12-31T07:25:26.956Z,89
2023-12-31T07:26:12.906Z,89
2023-12-31T07:26:58.853Z,89
2023-12-31T07:27:44.905Z,89
2023-12-31T07:28:30.936Z,89
2023-12-31T07:29:16.988Z,89
2023-12-31T07:30:03.059Z,89
2023-12-31T07:30:49.062Z,89
2023-12-31T07:31:35.001Z,89
2023-12-31T07:32:20.892Z,89
2023-12-31T07:33:07.552Z,89
2023-12-31T07:33:53.067Z,88
2023-12-31T07:34:38.999Z,88
2023-12-31T07:35:24.963Z,87
2023-12-31T07:36:10.952Z,87
2023-12-31T07:36:56.985Z,86
2023-12-31T07:37:43.019Z,86
2023-12-31T07:38:29.034Z,85
2023-12-31T07:39:15.041Z,85
2023-12-31T07:40:03.861Z,84
2023-12-31T07:40:47.090Z,84
2023-12-31T07:41:33.021Z,84
2023-12-31T07:42:18.963Z,84
2023-12-31T07:43:05.269Z,83
2023-12-31T07:43:51.087Z,83
2023-12-31T07:44:37.002Z,83
2023-12-31T07:45:23.075Z,83
2023-12-31T07:46:08.942Z,82
2023-12-31T07:46:54.953Z,82
2023-12-31T07:47:41.025Z,83
2023-12-31T07:48:26.989Z,82
2023-12-31T07:49:12.988Z,82
2023-12-31T07:49:58.945Z,82
2023-12-31T07:50:45.046Z,82
2023-12-31T07:51:30.990Z,82
2023-12-31T07:52:17.082Z,82
2023-12-31T07:53:03.150Z,82
2023-12-31T07:53:49.079Z,82
2023-12-31T07:54:35.070Z,82
2023-12-31T07:55:21.075Z,82
2023-12-31T07:56:08.198Z,82
2023-12-31T07:56:53.096Z,82
2023-12-31T07:57:39.070Z,82
2023-12-31T07:58:24.999Z,82
2023-12-31T07:59:11.059Z,82
2023-12-31T07:59:57.109Z,81
2023-12-31T08:00:43.287Z,81
2023-12-31T08:01:29.099Z,81
2023-12-31T08:02:15.087Z,81
2023-12-31T08:03:01.788Z,81
2023-12-31T08:03:47.121Z,81
2023-12-31T08:04:33.123Z,81
2023-12-31T08:05:19.094Z,81
2023-12-31T08:06:05.442Z,81
2023-12-31T08:06:51.125Z,81
2023-12-31T08:07:37.098Z,81
2023-12-31T08:08:23.076Z,81
2023-12-31T08:09:09.066Z,81
2023-12-31T08:09:55.023Z,81
2023-12-31T08:10:41.082Z,81
2023-12-31T08:11:27.137Z,81
2023-12-31T08:12:13.085Z,81
2023-12-31T08:12:59.079Z,81
2023-12-31T08:13:45.102Z,81
2023-12-31T08:14:31.042Z,81
2023-12-31T08:15:17.254Z,81
2023-12-31T08:16:03.073Z,81
2023-12-31T08:16:49.169Z,81
2023-12-31T08:17:35.116Z,81
2023-12-31T08:18:21.304Z,81
2023-12-31T08:19:07.134Z,81
2023-12-31T08:19:53.200Z,81
2023-12-31T08:20:39.071Z,81
2023-12-31T08:21:25.110Z,81
2023-12-31T08:22:11.168Z,81
2023-12-31T08:22:57.223Z,80
2023-12-31T08:23:46.550Z,80
2023-12-31T08:24:29.065Z,80
2023-12-31T08:25:15.204Z,80
2023-12-31T08:26:01.104Z,79
2023-12-31T08:26:47.143Z,79
2023-12-31T08:27:33.107Z,79
2023-12-31T08:28:19.124Z,79
2023-12-31T08:29:05.244Z,79
2023-12-31T08:29:51.144Z,79
2023-12-31T08:30:37.224Z,79
2023-12-31T08:31:23.148Z,79
2023-12-31T08:32:09.181Z,79
2023-12-31T08:32:55.219Z,79
2023-12-31T08:33:41.129Z,79
2023-12-31T08:34:27.215Z,79
2023-12-31T08:35:13.316Z,79
2023-12-31T08:35:59.202Z,79
2023-12-31T08:36:45.160Z,79
2023-12-31T08:37:31.158Z,79
2023-12-31T08:38:17.177Z,79
2023-12-31T08:39:03.308Z,79
2023-12-31T08:39:49.145Z,79
2023-12-31T08:40:35.215Z,79
2023-12-31T08:41:21.136Z,79
2023-12-31T08:42:07.116Z,79
2023-12-31T08:42:53.189Z,78
2023-12-31T08:43:39.232Z,78
2023-12-31T08:44:25.146Z,78
2023-12-31T08:45:11.257Z,78
2023-12-31T08:45:57.167Z,78
2023-12-31T08:46:43.224Z,78
2023-12-31T08:47:29.151Z,78
2023-12-31T08:48:15.353Z,79
2023-12-31T08:49:01.269Z,78
2023-12-31T08:49:47.204Z,78
2023-12-31T08:50:33.242Z,78
2023-12-31T08:51:19.214Z,78
2023-12-31T08:52:05.173Z,78
2023-12-31T08:52:51.160Z,78
2023-12-31T08:53:37.254Z,78
2023-12-31T08:54:23.259Z,78
2023-12-31T08:55:09.307Z,78
2023-12-31T08:55:55.248Z,78
2023-12-31T08:56:41.133Z,78
2023-12-31T08:57:27.178Z,78
2023-12-31T08:58:13.195Z,78
2023-12-31T08:58:59.230Z,79
2023-12-31T08:59:45.221Z,79
2023-12-31T09:00:31.302Z,79
2023-12-31T09:01:17.257Z,79
2023-12-31T09:02:03.201Z,79
2023-12-31T09:02:49.256Z,79
2023-12-31T09:03:35.278Z,79
2023-12-31T09:04:21.185Z,79
2023-12-31T09:05:07.289Z,79
2023-12-31T09:05:54.265Z,79
2023-12-31T09:06:39.173Z,79
2023-12-31T09:07:25.218Z,79
2023-12-31T09:08:12.254Z,79
2023-12-31T09:08:57.207Z,79
2023-12-31T09:09:43.216Z,79
2023-12-31T09:10:29.251Z,79
2023-12-31T09:11:15.223Z,79
2023-12-31T09:12:01.336Z,79
2023-12-31T09:12:47.265Z,78
2023-12-31T09:13:33.259Z,78
2023-12-31T09:14:19.311Z,78
2023-12-31T09:15:05.321Z,78
2023-12-31T09:15:51.298Z,78
2023-12-31T09:16:37.313Z,78
2023-12-31T09:17:23.328Z,78
2023-12-31T09:18:09.303Z,78
2023-12-31T09:18:55.342Z,78
2023-12-31T09:19:41.245Z,78
2023-12-31T09:20:27.285Z,78
2023-12-31T09:21:14.280Z,80
2023-12-31T09:22:00.377Z,80
2023-12-31T09:23:31.255Z,79
2023-12-31T09:24:17.291Z,79
2023-12-31T09:25:03.279Z,80
2023-12-31T09:25:49.375Z,79
2023-12-31T09:26:35.351Z,79
2023-12-31T09:27:21.402Z,79
2023-12-31T09:28:07.290Z,80
2023-12-31T09:28:53.377Z,80
2023-12-31T09:29:39.248Z,79
2023-12-31T09:30:25.444Z,79
2023-12-31T09:31:11.346Z,79
2023-12-31T09:31:57.396Z,79
2023-12-31T09:32:43.412Z,79
2023-12-31T09:33:29.489Z,79
2023-12-31T09:34:15.407Z,79
2023-12-31T09:35:01.472Z,79
2023-12-31T09:35:47.396Z,79
2023-12-31T09:36:33.329Z,79
2023-12-31T09:37:19.389Z,79
2023-12-31T09:38:05.459Z,78
2023-12-31T09:38:51.316Z,78
2023-12-31T09:39:37.337Z,78
2023-12-31T09:40:23.441Z,78
2023-12-31T09:41:09.262Z,78
2023-12-31T09:41:55.314Z,78
2023-12-31T09:42:41.305Z,78
2023-12-31T09:43:27.473Z,78
2023-12-31T09:44:13.365Z,78
2023-12-31T09:44:59.302Z,79
2023-12-31T09:45:45.472Z,78
2023-12-31T09:46:31.347Z,78
2023-12-31T09:47:17.424Z,78
2023-12-31T09:48:03.376Z,78
2023-12-31T09:48:49.415Z,78
2023-12-31T09:49:35.536Z,78
2023-12-31T09:50:21.449Z,78
2023-12-31T09:51:07.368Z,79
2023-12-31T09:51:53.398Z,79
2023-12-31T09:52:39.502Z,79
2023-12-31T09:53:25.406Z,79
2023-12-31T09:54:11.343Z,78
2023-12-31T09:54:57.362Z,78
2023-12-31T09:55:43.425Z,78
2023-12-31T09:56:29.348Z,79
2023-12-31T09:57:17.316Z,79
2023-12-31T09:58:01.442Z,79
2023-12-31T09:58:54.401Z,78
2023-12-31T09:59:33.398Z,78
2023-12-31T10:00:19.473Z,78
2023-12-31T10:01:05.476Z,79
2023-12-31T10:01:51.418Z,79
2023-12-31T10:02:37.494Z,78
2023-12-31T10:03:23.604Z,78
2023-12-31T10:04:12.660Z,78
2023-12-31T10:04:55.534Z,78
2023-12-31T10:05:42.619Z,78
2023-12-31T10:06:27.468Z,78
2023-12-31T10:07:13.448Z,78
2023-12-31T10:07:59.482Z,78
2023-12-31T10:08:45.440Z,78
2023-12-31T10:09:33.631Z,78
2023-12-31T10:10:17.497Z,78
2023-12-31T10:11:03.665Z,78
2023-12-31T10:11:49.432Z,77
2023-12-31T10:12:35.473Z,78
2023-12-31T10:13:21.460Z,78
2023-12-31T10:14:07.717Z,78
2023-12-31T10:14:53.552Z,78
2023-12-31T10:15:39.559Z,78
2023-12-31T10:16:25.443Z,78
2023-12-31T10:17:11.539Z,78
2023-12-31T10:17:57.516Z,78
2023-12-31T10:18:43.593Z,78
2023-12-31T10:19:29.417Z,78
2023-12-31T10:20:15.505Z,78
2023-12-31T10:21:01.488Z,78
2023-12-31T10:21:47.520Z,78
2023-12-31T10:22:33.609Z,78
2023-12-31T10:23:19.457Z,78
2023-12-31T10:24:05.523Z,78
2023-12-31T10:24:51.487Z,78
2023-12-31T10:25:37.499Z,78
2023-12-31T10:26:23.476Z,78
2023-12-31T10:27:09.447Z,78
2023-12-31T10:27:55.463Z,78
2023-12-31T10:28:41.497Z,78
2023-12-31T10:29:27.460Z,78
2023-12-31T10:30:13.624Z,77
2023-12-31T10:30:59.525Z,78
2023-12-31T10:31:45.540Z,78
2023-12-31T10:32:31.512Z,78
2023-12-31T10:33:17.588Z,78
2023-12-31T10:34:03.519Z,78
2023-12-31T10:34:49.510Z,78
2023-12-31T10:35:35.577Z,78
2023-12-31T10:36:21.595Z,78
2023-12-31T10:37:07.944Z,78
2023-12-31T10:37:53.634Z,78
2023-12-31T10:38:39.547Z,78
2023-12-31T10:39:25.539Z,78
2023-12-31T10:40:11.474Z,78
2023-12-31T10:40:57.592Z,78
2023-12-31T10:41:43.518Z,79
2023-12-31T10:42:29.475Z,79
2023-12-31T10:43:15.514Z,79
2023-12-31T10:44:01.565Z,78
2023-12-31T10:44:47.519Z,79
2023-12-31T10:45:33.631Z,79
2023-12-31T10:46:19.607Z,79
2023-12-31T10:47:05.654Z,79
2023-12-31T10:47:51.625Z,78
2023-12-31T10:48:37.744Z,78
2023-12-31T10:49:23.585Z,78
2023-12-31T10:50:09.630Z,78
2023-12-31T10:50:55.527Z,78
2023-12-31T10:51:41.509Z,78
2023-12-31T10:52:27.587Z,78
2023-12-31T10:53:13.582Z,78
2023-12-31T10:53:59.522Z,78
2023-12-31T10:54:45.590Z,79
2023-12-31T10:55:31.553Z,79
2023-12-31T10:56:17.586Z,79
2023-12-31T10:57:03.593Z,79